PWSweather.com
Personal Weather Stations
Station Observations
WD4JKH
Forsyth, GA 31029

Forsyth, GA 31029

Lat: 33.033225, Lon: -83.927995

Elevation: 709

Station Type: Davis Vantage VUE

High Low Average
Temperature 53.0°F11.7°C 31.3°F-0.4°C 42.1°F5.6°C
Dew Point 26.5°F-3.1°C 18.5°F-7.5°C 22.5°F-5.3°C
Winds 8.8 mph 14.2 kmh Calm Calm 2.0 mph WNW3.2 kmh WNW
Wind Gusts 16.0 mph25.7 kmh -- 5.0 mph8.0 kmh
Humidity 63% 32% 47%
Pressure 30.34 in1027.4 mb 30.22 in1023.4 mb -
Precipitation 0.00 in0.0 mm - -
Hour Temp Dew Point Humidity Winds Wind Gusts Pressure Precip Precip Rate Daily Precip Total
12:02 AM 38.9°F3.8°C 19.8°F-6.8°C 46% 2.3 mph WNW3.7 kmh WNW 4.0 mph6.4 kmh 30.32 in1026.8 mb 0.00 in0.0 mm 0.00 in0.0 mm 0.00 in0.0 mm
12:07 AM 38.8°F3.8°C 19.7°F-6.8°C 46% 2.1 mph WNW3.4 kmh WNW 5.0 mph8.0 kmh 30.32 in1026.8 mb 0.00 in0.0 mm 0.00 in0.0 mm 0.00 in0.0 mm
12:12 AM 38.8°F3.8°C 19.7°F-6.8°C 46% 1.9 mph WNW3.1 kmh WNW 6.0 mph9.7 kmh 30.32 in1026.8 mb 0.00 in0.0 mm 0.00 in0.0 mm 0.00 in0.0 mm
12:17 AM 38.6°F3.7°C 20.1°F-6.6°C 47% 2.0 mph WNW3.2 kmh WNW 6.0 mph9.7 kmh 30.32 in1026.8 mb 0.00 in0.0 mm 0.00 in0.0 mm 0.00 in0.0 mm
12:22 AM 38.5°F3.6°C 19.9°F-6.7°C 47% 1.6 mph WNW2.6 kmh WNW 6.0 mph9.7 kmh 30.33 in1027.1 mb 0.00 in0.0 mm 0.00 in0.0 mm 0.00 in0.0 mm
12:27 AM 38.4°F3.6°C 19.8°F-6.8°C 47% 2.2 mph WNW3.5 kmh WNW 6.0 mph9.7 kmh 30.33 in1027.1 mb 0.00 in0.0 mm 0.00 in0.0 mm 0.00 in0.0 mm
12:32 AM 38.3°F3.5°C 20.2°F-6.6°C 48% 2.3 mph WNW3.7 kmh WNW 6.0 mph9.7 kmh 30.33 in1027.1 mb 0.00 in0.0 mm 0.00 in0.0 mm 0.00 in0.0 mm
12:37 AM 38.3°F3.5°C 20.2°F-6.6°C 48% 2.5 mph WNW4.0 kmh WNW 6.0 mph9.7 kmh 30.33 in1027.1 mb 0.00 in0.0 mm 0.00 in0.0 mm 0.00 in0.0 mm
12:42 AM 38.2°F3.4°C 20.1°F-6.6°C 48% 2.1 mph WNW3.4 kmh WNW 6.0 mph9.7 kmh 30.32 in1026.8 mb 0.00 in0.0 mm 0.00 in0.0 mm 0.00 in0.0 mm
12:47 AM 38.1°F3.4°C 20.0°F-6.7°C 48% 2.5 mph WNW4.0 kmh WNW 6.0 mph9.7 kmh 30.32 in1026.8 mb 0.00 in0.0 mm 0.00 in0.0 mm 0.00 in0.0 mm
12:52 AM 38.1°F3.4°C 20.0°F-6.7°C 48% 2.5 mph WNW4.0 kmh WNW 5.0 mph8.0 kmh 30.32 in1026.8 mb 0.00 in0.0 mm 0.00 in0.0 mm 0.00 in0.0 mm
12:57 AM 38.1°F3.4°C 20.5°F-6.4°C 49% 2.0 mph WNW3.2 kmh WNW 6.0 mph9.7 kmh 30.32 in1026.8 mb 0.00 in0.0 mm 0.00 in0.0 mm 0.00 in0.0 mm
01:02 AM 37.9°F3.3°C 20.4°F-6.4°C 49% 2.3 mph WNW3.7 kmh WNW 6.0 mph9.7 kmh 30.32 in1026.8 mb 0.00 in0.0 mm 0.00 in0.0 mm 0.00 in0.0 mm
01:07 AM 37.8°F3.2°C 20.3°F-6.5°C 49% 3.0 mph WNW4.8 kmh WNW 6.0 mph9.7 kmh 30.32 in1026.8 mb 0.00 in0.0 mm 0.00 in0.0 mm 0.00 in0.0 mm
01:12 AM 37.7°F3.2°C 20.2°F-6.6°C 49% 2.0 mph WNW3.2 kmh WNW 6.0 mph9.7 kmh 30.32 in1026.8 mb 0.00 in0.0 mm 0.00 in0.0 mm 0.00 in0.0 mm
01:17 AM 37.5°F3.1°C 20.5°F-6.4°C 50% 1.7 mph WNW2.7 kmh WNW 6.0 mph9.7 kmh 30.32 in1026.8 mb 0.00 in0.0 mm 0.00 in0.0 mm 0.00 in0.0 mm
01:22 AM 37.3°F2.9°C 20.3°F-6.5°C 50% 1.7 mph WNW2.7 kmh WNW 6.0 mph9.7 kmh 30.32 in1026.8 mb 0.00 in0.0 mm 0.00 in0.0 mm 0.00 in0.0 mm
01:27 AM 37.2°F2.9°C 20.7°F-6.3°C 51% 2.2 mph WNW3.5 kmh WNW 5.0 mph8.0 kmh 30.32 in1026.8 mb 0.00 in0.0 mm 0.00 in0.0 mm 0.00 in0.0 mm
01:32 AM 37.1°F2.8°C 20.6°F-6.3°C 51% 2.1 mph NW3.4 kmh NW 5.0 mph8.0 kmh 30.32 in1026.8 mb 0.00 in0.0 mm 0.00 in0.0 mm 0.00 in0.0 mm
01:37 AM 37.0°F2.8°C 20.5°F-6.4°C 51% 1.5 mph NW2.4 kmh NW 5.0 mph8.0 kmh 30.32 in1026.8 mb 0.00 in0.0 mm 0.00 in0.0 mm 0.00 in0.0 mm
01:42 AM 36.9°F2.7°C 20.4°F-6.4°C 51% 1.3 mph WNW2.1 kmh WNW 5.0 mph8.0 kmh 30.32 in1026.8 mb 0.00 in0.0 mm 0.00 in0.0 mm 0.00 in0.0 mm
01:47 AM 36.8°F2.7°C 20.8°F-6.2°C 52% 1.2 mph WNW1.9 kmh WNW 4.0 mph6.4 kmh 30.32 in1026.8 mb 0.00 in0.0 mm 0.00 in0.0 mm 0.00 in0.0 mm
01:52 AM 36.7°F2.6°C 20.7°F-6.3°C 52% 1.4 mph WNW2.3 kmh WNW 4.0 mph6.4 kmh 30.32 in1026.8 mb 0.00 in0.0 mm 0.00 in0.0 mm 0.00 in0.0 mm
01:57 AM 36.5°F2.5°C 21.0°F-6.1°C 53% 1.6 mph WNW2.6 kmh WNW 4.0 mph6.4 kmh 30.32 in1026.8 mb 0.00 in0.0 mm 0.00 in0.0 mm 0.00 in0.0 mm
02:02 AM 36.3°F2.4°C 20.8°F-6.2°C 53% 1.7 mph NW2.7 kmh NW 4.0 mph6.4 kmh 30.32 in1026.8 mb 0.00 in0.0 mm 0.00 in0.0 mm 0.00 in0.0 mm
02:07 AM 36.3°F2.4°C 20.8°F-6.2°C 53% 1.4 mph NW2.3 kmh NW 4.0 mph6.4 kmh 30.32 in1026.8 mb 0.00 in0.0 mm 0.00 in0.0 mm 0.00 in0.0 mm
02:12 AM 36.3°F2.4°C 20.8°F-6.2°C 53% 1.6 mph WNW2.6 kmh WNW 4.0 mph6.4 kmh 30.32 in1026.8 mb 0.00 in0.0 mm 0.00 in0.0 mm 0.00 in0.0 mm
02:17 AM 36.2°F2.3°C 20.7°F-6.3°C 53% 1.4 mph W2.3 kmh W 4.0 mph6.4 kmh 30.32 in1026.8 mb 0.00 in0.0 mm 0.00 in0.0 mm 0.00 in0.0 mm
02:22 AM 36.2°F2.3°C 20.7°F-6.3°C 53% 1.5 mph WNW2.4 kmh WNW 4.0 mph6.4 kmh 30.32 in1026.8 mb 0.00 in0.0 mm 0.00 in0.0 mm 0.00 in0.0 mm
02:27 AM 36.0°F2.2°C 21.0°F-6.1°C 54% 1.1 mph WNW1.8 kmh WNW 4.0 mph6.4 kmh 30.33 in1027.1 mb 0.00 in0.0 mm 0.00 in0.0 mm 0.00 in0.0 mm
02:32 AM 35.9°F2.2°C 20.9°F-6.2°C 54% 1.3 mph WNW2.1 kmh WNW 4.0 mph6.4 kmh 30.32 in1026.8 mb 0.00 in0.0 mm 0.00 in0.0 mm 0.00 in0.0 mm
02:37 AM 35.7°F2.1°C 20.7°F-6.3°C 54% 1.4 mph WNW2.3 kmh WNW 3.0 mph4.8 kmh 30.32 in1026.8 mb 0.00 in0.0 mm 0.00 in0.0 mm 0.00 in0.0 mm
02:42 AM 35.7°F2.1°C 20.7°F-6.3°C 54% 1.0 mph WNW1.6 kmh WNW 3.0 mph4.8 kmh 30.32 in1026.8 mb 0.00 in0.0 mm 0.00 in0.0 mm 0.00 in0.0 mm
02:47 AM 35.8°F2.1°C 20.8°F-6.2°C 54% 2.3 mph WNW3.7 kmh WNW 5.0 mph8.0 kmh 30.32 in1026.8 mb 0.00 in0.0 mm 0.00 in0.0 mm 0.00 in0.0 mm
02:52 AM 35.8°F2.1°C 21.2°F-6.0°C 55% 1.8 mph WNW2.9 kmh WNW 5.0 mph8.0 kmh 30.32 in1026.8 mb 0.00 in0.0 mm 0.00 in0.0 mm 0.00 in0.0 mm
02:57 AM 35.8°F2.1°C 20.8°F-6.2°C 54% 2.3 mph WNW3.7 kmh WNW 6.0 mph9.7 kmh 30.32 in1026.8 mb 0.00 in0.0 mm 0.00 in0.0 mm 0.00 in0.0 mm
03:02 AM 35.7°F2.1°C 21.1°F-6.1°C 55% 1.5 mph WNW2.4 kmh WNW 6.0 mph9.7 kmh 30.32 in1026.8 mb 0.00 in0.0 mm 0.00 in0.0 mm 0.00 in0.0 mm
03:07 AM 35.6°F2.0°C 21.0°F-6.1°C 55% 1.3 mph W2.1 kmh W 6.0 mph9.7 kmh 30.32 in1026.8 mb 0.00 in0.0 mm 0.00 in0.0 mm 0.00 in0.0 mm
03:12 AM 35.4°F1.9°C 20.8°F-6.2°C 55% 1.6 mph WNW2.6 kmh WNW 6.0 mph9.7 kmh 30.32 in1026.8 mb 0.00 in0.0 mm 0.00 in0.0 mm 0.00 in0.0 mm
03:17 AM 35.3°F1.8°C 20.7°F-6.3°C 55% 1.5 mph WNW2.4 kmh WNW 5.0 mph8.0 kmh 30.32 in1026.8 mb 0.00 in0.0 mm 0.00 in0.0 mm 0.00 in0.0 mm
03:22 AM 35.2°F1.8°C 21.1°F-6.1°C 56% 1.2 mph WNW1.9 kmh WNW 5.0 mph8.0 kmh 30.32 in1026.8 mb 0.00 in0.0 mm 0.00 in0.0 mm 0.00 in0.0 mm
03:27 AM 35.0°F1.7°C 20.9°F-6.2°C 56% 1.0 mph WNW1.6 kmh WNW 5.0 mph8.0 kmh 30.32 in1026.8 mb 0.00 in0.0 mm 0.00 in0.0 mm 0.00 in0.0 mm
03:32 AM 34.8°F1.6°C 20.7°F-6.3°C 56% 1.4 mph WNW2.3 kmh WNW 4.0 mph6.4 kmh 30.32 in1026.8 mb 0.00 in0.0 mm 0.00 in0.0 mm 0.00 in0.0 mm
03:37 AM 34.7°F1.5°C 21.0°F-6.1°C 57% 1.6 mph WNW2.6 kmh WNW 4.0 mph6.4 kmh 30.32 in1026.8 mb 0.00 in0.0 mm 0.00 in0.0 mm 0.00 in0.0 mm
03:42 AM 34.7°F1.5°C 20.6°F-6.3°C 56% 2.3 mph WNW3.7 kmh WNW 5.0 mph8.0 kmh 30.32 in1026.8 mb 0.00 in0.0 mm 0.00 in0.0 mm 0.00 in0.0 mm
03:47 AM 34.7°F1.5°C 20.6°F-6.3°C 56% 2.1 mph WNW3.4 kmh WNW 5.0 mph8.0 kmh 30.32 in1026.8 mb 0.00 in0.0 mm 0.00 in0.0 mm 0.00 in0.0 mm
03:52 AM 34.8°F1.6°C 20.7°F-6.3°C 56% 1.8 mph WNW2.9 kmh WNW 6.0 mph9.7 kmh 30.32 in1026.8 mb 0.00 in0.0 mm 0.00 in0.0 mm 0.00 in0.0 mm
03:57 AM 34.8°F1.6°C 20.7°F-6.3°C 56% 1.8 mph WNW2.9 kmh WNW 6.0 mph9.7 kmh 30.32 in1026.8 mb 0.00 in0.0 mm 0.00 in0.0 mm 0.00 in0.0 mm
04:02 AM 34.7°F1.5°C 20.6°F-6.3°C 56% 1.5 mph WNW2.4 kmh WNW 6.0 mph9.7 kmh 30.32 in1026.8 mb 0.00 in0.0 mm 0.00 in0.0 mm 0.00 in0.0 mm
04:07 AM 34.6°F1.4°C 20.5°F-6.4°C 56% 1.3 mph WNW2.1 kmh WNW 6.0 mph9.7 kmh 30.32 in1026.8 mb 0.00 in0.0 mm 0.00 in0.0 mm 0.00 in0.0 mm
04:12 AM 34.4°F1.3°C 20.8°F-6.2°C 57% 1.4 mph WNW2.3 kmh WNW 4.0 mph6.4 kmh 30.32 in1026.8 mb 0.00 in0.0 mm 0.00 in0.0 mm 0.00 in0.0 mm
04:17 AM 34.3°F1.3°C 20.6°F-6.3°C 57% 2.2 mph WNW3.5 kmh WNW 4.0 mph6.4 kmh 30.31 in1026.4 mb 0.00 in0.0 mm 0.00 in0.0 mm 0.00 in0.0 mm
04:22 AM 34.1°F1.2°C 20.5°F-6.4°C 57% 1.5 mph WNW2.4 kmh WNW 4.0 mph6.4 kmh 30.31 in1026.4 mb 0.00 in0.0 mm 0.00 in0.0 mm 0.00 in0.0 mm
04:27 AM 34.0°F1.1°C 20.3°F-6.5°C 57% 1.1 mph WNW1.8 kmh WNW 4.0 mph6.4 kmh 30.31 in1026.4 mb 0.00 in0.0 mm 0.00 in0.0 mm 0.00 in0.0 mm
04:32 AM 33.9°F1.1°C 20.3°F-6.5°C 57% 2.2 mph WNW3.5 kmh WNW 4.0 mph6.4 kmh 30.31 in1026.4 mb 0.00 in0.0 mm 0.00 in0.0 mm 0.00 in0.0 mm
04:37 AM 33.6°F0.9°C 20.4°F-6.4°C 58% 1.2 mph NW1.9 kmh NW 4.0 mph6.4 kmh 30.31 in1026.4 mb 0.00 in0.0 mm 0.00 in0.0 mm 0.00 in0.0 mm
04:42 AM 33.5°F0.8°C 20.7°F-6.3°C 59% 1.6 mph WNW2.6 kmh WNW 5.0 mph8.0 kmh 30.31 in1026.4 mb 0.00 in0.0 mm 0.00 in0.0 mm 0.00 in0.0 mm
04:47 AM 33.5°F0.8°C 20.3°F-6.5°C 58% 1.9 mph NW3.1 kmh NW 5.0 mph8.0 kmh 30.31 in1026.4 mb 0.00 in0.0 mm 0.00 in0.0 mm 0.00 in0.0 mm
04:52 AM 33.7°F0.9°C 20.1°F-6.6°C 57% 1.0 mph WNW1.6 kmh WNW 5.0 mph8.0 kmh 30.31 in1026.4 mb 0.00 in0.0 mm 0.00 in0.0 mm 0.00 in0.0 mm
04:56 AM 33.7°F0.9°C 20.1°F-6.6°C 57% 1.1 mph NW1.8 kmh NW 5.0 mph8.0 kmh 30.30 in1026.1 mb 0.00 in0.0 mm 0.00 in0.0 mm 0.00 in0.0 mm
05:01 AM 33.7°F0.9°C 20.1°F-6.6°C 57% 1.2 mph WNW1.9 kmh WNW 4.0 mph6.4 kmh 30.30 in1026.1 mb 0.00 in0.0 mm 0.00 in0.0 mm 0.00 in0.0 mm
05:06 AM 33.6°F0.9°C 20.0°F-6.7°C 57% 1.2 mph WNW1.9 kmh WNW 4.0 mph6.4 kmh 30.31 in1026.4 mb 0.00 in0.0 mm 0.00 in0.0 mm 0.00 in0.0 mm
05:11 AM 33.4°F0.8°C 19.8°F-6.8°C 57% 1.0 mph W1.6 kmh W 2.0 mph3.2 kmh 30.30 in1026.1 mb 0.00 in0.0 mm 0.00 in0.0 mm 0.00 in0.0 mm
05:16 AM 33.3°F0.7°C 20.1°F-6.6°C 58% 1.0 mph W1.6 kmh W 2.0 mph3.2 kmh 30.30 in1026.1 mb 0.00 in0.0 mm 0.00 in0.0 mm 0.00 in0.0 mm
05:21 AM 33.0°F0.6°C 20.3°F-6.5°C 59% 1.0 mph WNW1.6 kmh WNW 2.0 mph3.2 kmh 30.30 in1026.1 mb 0.00 in0.0 mm 0.00 in0.0 mm 0.00 in0.0 mm
05:26 AM 32.9°F0.5°C 20.2°F-6.6°C 59% 1.0 mph WNW1.6 kmh WNW 2.0 mph3.2 kmh 30.30 in1026.1 mb 0.00 in0.0 mm 0.00 in0.0 mm 0.00 in0.0 mm
05:31 AM 32.9°F0.5°C 20.2°F-6.6°C 59% 1.3 mph WNW2.1 kmh WNW 3.0 mph4.8 kmh 30.30 in1026.1 mb 0.00 in0.0 mm 0.00 in0.0 mm 0.00 in0.0 mm
05:36 AM 32.7°F0.4°C 20.4°F-6.4°C 60% 1.0 mph W1.6 kmh W 3.0 mph4.8 kmh 30.30 in1026.1 mb 0.00 in0.0 mm 0.00 in0.0 mm 0.00 in0.0 mm
05:41 AM 32.5°F0.3°C 20.2°F-6.6°C 60% 1.0 mph W1.6 kmh W 3.0 mph4.8 kmh 30.29 in1025.7 mb 0.00 in0.0 mm 0.00 in0.0 mm 0.00 in0.0 mm
05:46 AM 32.5°F0.3°C 20.2°F-6.6°C 60% 1.0 mph W1.6 kmh W 3.0 mph4.8 kmh 30.29 in1025.7 mb 0.00 in0.0 mm 0.00 in0.0 mm 0.00 in0.0 mm
05:51 AM 32.5°F0.3°C 20.2°F-6.6°C 60% Calm Calm 1.0 mph1.6 kmh 30.29 in1025.7 mb 0.00 in0.0 mm 0.00 in0.0 mm 0.00 in0.0 mm
05:56 AM 32.4°F0.2°C 20.1°F-6.6°C 60% 1.0 mph SW1.6 kmh SW 1.0 mph1.6 kmh 30.28 in1025.4 mb 0.00 in0.0 mm 0.00 in0.0 mm 0.00 in0.0 mm
06:01 AM 32.3°F0.2°C 20.0°F-6.7°C 60% 1.0 mph SW1.6 kmh SW 1.0 mph1.6 kmh 30.28 in1025.4 mb 0.00 in0.0 mm 0.00 in0.0 mm 0.00 in0.0 mm
06:06 AM 32.4°F0.2°C 19.7°F-6.8°C 59% Calm Calm 1.0 mph1.6 kmh 30.28 in1025.4 mb 0.00 in0.0 mm 0.00 in0.0 mm 0.00 in0.0 mm
06:11 AM 32.6°F0.3°C 19.5°F-6.9°C 58% 1.0 mph SW1.6 kmh SW 1.0 mph1.6 kmh 30.28 in1025.4 mb 0.00 in0.0 mm 0.00 in0.0 mm 0.00 in0.0 mm
06:16 AM 32.6°F0.3°C 19.5°F-6.9°C 58% Calm Calm 1.0 mph1.6 kmh 30.28 in1025.4 mb 0.00 in0.0 mm 0.00 in0.0 mm 0.00 in0.0 mm
06:21 AM 32.4°F0.2°C 19.7°F-6.8°C 59% Calm Calm 1.0 mph1.6 kmh 30.28 in1025.4 mb 0.00 in0.0 mm 0.00 in0.0 mm 0.00 in0.0 mm
06:26 AM 32.0°F0.0°C 20.1°F-6.6°C 61% Calm Calm 1.0 mph1.6 kmh 30.29 in1025.7 mb 0.00 in0.0 mm 0.00 in0.0 mm 0.00 in0.0 mm
06:31 AM 31.6°F-0.2°C 20.1°F-6.6°C 62% 1.0 mph W1.6 kmh W 1.0 mph1.6 kmh 30.29 in1025.7 mb 0.00 in0.0 mm 0.00 in0.0 mm 0.00 in0.0 mm
06:36 AM 31.3°F-0.4°C 20.2°F-6.6°C 63% 1.1 mph W1.8 kmh W 2.0 mph3.2 kmh 30.29 in1025.7 mb 0.00 in0.0 mm 0.00 in0.0 mm 0.00 in0.0 mm
06:41 AM 31.3°F-0.4°C 20.2°F-6.6°C 63% 1.3 mph WNW2.1 kmh WNW 3.0 mph4.8 kmh 30.29 in1025.7 mb 0.00 in0.0 mm 0.00 in0.0 mm 0.00 in0.0 mm
06:46 AM 31.5°F-0.3°C 20.4°F-6.4°C 63% 1.4 mph NW2.3 kmh NW 3.0 mph4.8 kmh 30.29 in1025.7 mb 0.00 in0.0 mm 0.00 in0.0 mm 0.00 in0.0 mm
06:51 AM 31.9°F-0.1°C 20.0°F-6.7°C 61% 1.5 mph NW2.4 kmh NW 4.0 mph6.4 kmh 30.28 in1025.4 mb 0.00 in0.0 mm 0.00 in0.0 mm 0.00 in0.0 mm
06:56 AM 32.1°F0.1°C 20.2°F-6.6°C 61% 1.3 mph NW2.1 kmh NW 4.0 mph6.4 kmh 30.29 in1025.7 mb 0.00 in0.0 mm 0.00 in0.0 mm 0.00 in0.0 mm
07:01 AM 32.4°F0.2°C 20.1°F-6.6°C 60% 1.7 mph NW2.7 kmh NW 4.0 mph6.4 kmh 30.29 in1025.7 mb 0.00 in0.0 mm 0.00 in0.0 mm 0.00 in0.0 mm
07:06 AM 32.7°F0.4°C 19.6°F-6.9°C 58% 1.4 mph WNW2.3 kmh WNW 4.0 mph6.4 kmh 30.29 in1025.7 mb 0.00 in0.0 mm 0.00 in0.0 mm 0.00 in0.0 mm
07:11 AM 32.8°F0.4°C 19.7°F-6.8°C 58% 1.1 mph WNW1.8 kmh WNW 4.0 mph6.4 kmh 30.29 in1025.7 mb 0.00 in0.0 mm 0.00 in0.0 mm 0.00 in0.0 mm
07:16 AM 33.0°F0.6°C 19.9°F-6.7°C 58% 1.6 mph WNW2.6 kmh WNW 3.0 mph4.8 kmh 30.29 in1025.7 mb 0.00 in0.0 mm 0.00 in0.0 mm 0.00 in0.0 mm
07:21 AM 33.1°F0.6°C 19.5°F-6.9°C 57% 1.6 mph NW2.6 kmh NW 4.0 mph6.4 kmh 30.29 in1025.7 mb 0.00 in0.0 mm 0.00 in0.0 mm 0.00 in0.0 mm
07:26 AM 33.0°F0.6°C 19.4°F-7.0°C 57% 1.1 mph NW1.8 kmh NW 4.0 mph6.4 kmh 30.29 in1025.7 mb 0.00 in0.0 mm 0.00 in0.0 mm 0.00 in0.0 mm
07:31 AM 32.9°F0.5°C 19.3°F-7.1°C 57% 1.5 mph WNW2.4 kmh WNW 4.0 mph6.4 kmh 30.30 in1026.1 mb 0.00 in0.0 mm 0.00 in0.0 mm 0.00 in0.0 mm
07:36 AM 32.9°F0.5°C 19.3°F-7.1°C 57% 1.4 mph WNW2.3 kmh WNW 4.0 mph6.4 kmh 30.30 in1026.1 mb 0.00 in0.0 mm 0.00 in0.0 mm 0.00 in0.0 mm
07:41 AM 32.8°F0.4°C 19.3°F-7.1°C 57% 1.4 mph WNW2.3 kmh WNW 3.0 mph4.8 kmh 30.31 in1026.4 mb 0.00 in0.0 mm 0.00 in0.0 mm 0.00 in0.0 mm
07:46 AM 32.8°F0.4°C 19.3°F-7.1°C 57% 1.6 mph WNW2.6 kmh WNW 4.0 mph6.4 kmh 30.31 in1026.4 mb 0.00 in0.0 mm 0.00 in0.0 mm 0.00 in0.0 mm
07:51 AM 32.8°F0.4°C 19.7°F-6.8°C 58% 1.3 mph WNW2.1 kmh WNW 4.0 mph6.4 kmh 30.31 in1026.4 mb 0.00 in0.0 mm 0.00 in0.0 mm 0.00 in0.0 mm
07:56 AM 32.7°F0.4°C 19.6°F-6.9°C 58% 1.0 mph NW1.6 kmh NW 4.0 mph6.4 kmh 30.31 in1026.4 mb 0.00 in0.0 mm 0.00 in0.0 mm 0.00 in0.0 mm
08:01 AM 32.4°F0.2°C 20.1°F-6.6°C 60% 1.1 mph NW1.8 kmh NW 4.0 mph6.4 kmh 30.31 in1026.4 mb 0.00 in0.0 mm 0.00 in0.0 mm 0.00 in0.0 mm
08:06 AM 32.1°F0.1°C 20.2°F-6.6°C 61% 1.0 mph NW1.6 kmh NW 4.0 mph6.4 kmh 30.31 in1026.4 mb 0.00 in0.0 mm 0.00 in0.0 mm 0.00 in0.0 mm
08:11 AM 31.9°F-0.1°C 20.0°F-6.7°C 61% 1.4 mph WNW2.3 kmh WNW 4.0 mph6.4 kmh 30.31 in1026.4 mb 0.00 in0.0 mm 0.00 in0.0 mm 0.00 in0.0 mm
08:16 AM 31.9°F-0.1°C 20.4°F-6.4°C 62% 1.2 mph NW1.9 kmh NW 4.0 mph6.4 kmh 30.31 in1026.4 mb 0.00 in0.0 mm 0.00 in0.0 mm 0.00 in0.0 mm
08:21 AM 31.8°F-0.1°C 20.3°F-6.5°C 62% 1.4 mph NW2.3 kmh NW 4.0 mph6.4 kmh 30.31 in1026.4 mb 0.00 in0.0 mm 0.00 in0.0 mm 0.00 in0.0 mm
08:26 AM 31.8°F-0.1°C 20.3°F-6.5°C 62% 1.7 mph NW2.7 kmh NW 4.0 mph6.4 kmh 30.31 in1026.4 mb 0.00 in0.0 mm 0.00 in0.0 mm 0.00 in0.0 mm
08:31 AM 31.8°F-0.1°C 20.3°F-6.5°C 62% 1.6 mph NW2.6 kmh NW 4.0 mph6.4 kmh 30.31 in1026.4 mb 0.00 in0.0 mm 0.00 in0.0 mm 0.00 in0.0 mm
08:36 AM 31.6°F-0.2°C 20.1°F-6.6°C 62% 1.8 mph NW2.9 kmh NW 4.0 mph6.4 kmh 30.31 in1026.4 mb 0.00 in0.0 mm 0.00 in0.0 mm 0.00 in0.0 mm
08:41 AM 31.6°F-0.2°C 20.5°F-6.4°C 63% 1.6 mph NW2.6 kmh NW 6.0 mph9.7 kmh 30.31 in1026.4 mb 0.00 in0.0 mm 0.00 in0.0 mm 0.00 in0.0 mm
08:46 AM 31.7°F-0.2°C 20.6°F-6.3°C 63% 1.6 mph NW2.6 kmh NW 6.0 mph9.7 kmh 30.31 in1026.4 mb 0.00 in0.0 mm 0.00 in0.0 mm 0.00 in0.0 mm
08:51 AM 31.9°F-0.1°C 20.8°F-6.2°C 63% 1.2 mph WNW1.9 kmh WNW 6.0 mph9.7 kmh 30.32 in1026.8 mb 0.00 in0.0 mm 0.00 in0.0 mm 0.00 in0.0 mm
08:56 AM 32.0°F0.0°C 20.9°F-6.2°C 63% 1.3 mph NW2.1 kmh NW 6.0 mph9.7 kmh 30.32 in1026.8 mb 0.00 in0.0 mm 0.00 in0.0 mm 0.00 in0.0 mm
09:01 AM 32.2°F0.1°C 20.7°F-6.3°C 62% 1.3 mph NW2.1 kmh NW 4.0 mph6.4 kmh 30.32 in1026.8 mb 0.00 in0.0 mm 0.00 in0.0 mm 0.00 in0.0 mm
09:06 AM 32.4°F0.2°C 20.9°F-6.2°C 62% 1.1 mph WNW1.8 kmh WNW 4.0 mph6.4 kmh 30.32 in1026.8 mb 0.00 in0.0 mm 0.00 in0.0 mm 0.00 in0.0 mm
09:11 AM 32.5°F0.3°C 21.0°F-6.1°C 62% 1.3 mph WNW2.1 kmh WNW 3.0 mph4.8 kmh 30.33 in1027.1 mb 0.00 in0.0 mm 0.00 in0.0 mm 0.00 in0.0 mm
09:16 AM 32.6°F0.3°C 21.0°F-6.1°C 62% 1.2 mph WNW1.9 kmh WNW 3.0 mph4.8 kmh 30.33 in1027.1 mb 0.00 in0.0 mm 0.00 in0.0 mm 0.00 in0.0 mm
09:21 AM 32.8°F0.4°C 21.3°F-5.9°C 62% Calm Calm 3.0 mph4.8 kmh 30.33 in1027.1 mb 0.00 in0.0 mm 0.00 in0.0 mm 0.00 in0.0 mm
09:26 AM 33.0°F0.6°C 21.1°F-6.1°C 61% 1.4 mph W2.3 kmh W 3.0 mph4.8 kmh 30.34 in1027.4 mb 0.00 in0.0 mm 0.00 in0.0 mm 0.00 in0.0 mm
09:32 AM 33.2°F0.7°C 21.2°F-6.0°C 61% 1.7 mph NW2.7 kmh NW 3.0 mph4.8 kmh 30.34 in1027.4 mb 0.00 in0.0 mm 0.00 in0.0 mm 0.00 in0.0 mm
09:37 AM 33.5°F0.8°C 21.5°F-5.8°C 61% 1.0 mph WNW1.6 kmh WNW 3.0 mph4.8 kmh 30.34 in1027.4 mb 0.00 in0.0 mm 0.00 in0.0 mm 0.00 in0.0 mm
09:42 AM 33.8°F1.0°C 21.4°F-5.9°C 60% Calm Calm 3.0 mph4.8 kmh 30.34 in1027.4 mb 0.00 in0.0 mm 0.00 in0.0 mm 0.00 in0.0 mm
09:47 AM 34.1°F1.2°C 21.7°F-5.7°C 60% 1.4 mph W2.3 kmh W 3.0 mph4.8 kmh 30.34 in1027.4 mb 0.00 in0.0 mm 0.00 in0.0 mm 0.00 in0.0 mm
09:52 AM 34.4°F1.3°C 21.5°F-5.8°C 59% 1.2 mph WNW1.9 kmh WNW 3.0 mph4.8 kmh 30.34 in1027.4 mb 0.00 in0.0 mm 0.00 in0.0 mm 0.00 in0.0 mm
09:56 AM 34.6°F1.4°C 21.8°F-5.7°C 59% 1.0 mph NW1.6 kmh NW 3.0 mph4.8 kmh 30.34 in1027.4 mb 0.00 in0.0 mm 0.00 in0.0 mm 0.00 in0.0 mm
10:01 AM 34.8°F1.6°C 21.5°F-5.8°C 58% 2.2 mph NW3.5 kmh NW 4.0 mph6.4 kmh 30.34 in1027.4 mb 0.00 in0.0 mm 0.00 in0.0 mm 0.00 in0.0 mm
10:06 AM 35.1°F1.7°C 21.8°F-5.7°C 58% 1.5 mph NW2.4 kmh NW 4.0 mph6.4 kmh 30.33 in1027.1 mb 0.00 in0.0 mm 0.00 in0.0 mm 0.00 in0.0 mm
10:11 AM 35.3°F1.8°C 22.0°F-5.6°C 58% 2.3 mph NW3.7 kmh NW 5.0 mph8.0 kmh 30.33 in1027.1 mb 0.00 in0.0 mm 0.00 in0.0 mm 0.00 in0.0 mm
10:15 AM 35.8°F2.1°C 22.5°F-5.3°C 58% 2.6 mph NW4.2 kmh NW 6.0 mph9.7 kmh 30.34 in1027.4 mb 0.00 in0.0 mm 0.00 in0.0 mm 0.00 in0.0 mm
10:21 AM 36.1°F2.3°C 21.9°F-5.6°C 56% 3.1 mph NW5.0 kmh NW 7.0 mph11.3 kmh 30.33 in1027.1 mb 0.00 in0.0 mm 0.00 in0.0 mm 0.00 in0.0 mm
10:26 AM 36.3°F2.4°C 22.1°F-5.5°C 56% 3.2 mph NW5.1 kmh NW 10.0 mph16.1 kmh 30.33 in1027.1 mb 0.00 in0.0 mm 0.00 in0.0 mm 0.00 in0.0 mm
10:31 AM 36.7°F2.6°C 22.1°F-5.5°C 55% 4.3 mph NW6.9 kmh NW 10.0 mph16.1 kmh 30.34 in1027.4 mb 0.00 in0.0 mm 0.00 in0.0 mm 0.00 in0.0 mm
10:36 AM 37.1°F2.8°C 22.4°F-5.3°C 55% 4.4 mph NW7.1 kmh NW 10.0 mph16.1 kmh 30.34 in1027.4 mb 0.00 in0.0 mm 0.00 in0.0 mm 0.00 in0.0 mm
10:41 AM 37.5°F3.1°C 22.4°F-5.3°C 54% 3.1 mph WNW5.0 kmh WNW 10.0 mph16.1 kmh 30.34 in1027.4 mb 0.00 in0.0 mm 0.00 in0.0 mm 0.00 in0.0 mm
10:46 AM 37.8°F3.2°C 22.2°F-5.4°C 53% 5.0 mph NW8.0 kmh NW 10.0 mph16.1 kmh 30.34 in1027.4 mb 0.00 in0.0 mm 0.00 in0.0 mm 0.00 in0.0 mm
10:51 AM 38.0°F3.3°C 22.4°F-5.3°C 53% 4.2 mph NW6.8 kmh NW 10.0 mph16.1 kmh 30.34 in1027.4 mb 0.00 in0.0 mm 0.00 in0.0 mm 0.00 in0.0 mm
10:56 AM 38.5°F3.6°C 22.4°F-5.3°C 52% 4.4 mph NW7.1 kmh NW 13.0 mph20.9 kmh 30.34 in1027.4 mb 0.00 in0.0 mm 0.00 in0.0 mm 0.00 in0.0 mm
11:01 AM 38.7°F3.7°C 22.1°F-5.5°C 51% 6.2 mph NW10.0 kmh NW 16.0 mph25.7 kmh 30.33 in1027.1 mb 0.00 in0.0 mm 0.00 in0.0 mm 0.00 in0.0 mm
11:06 AM 39.2°F4.0°C 23.0°F-5.0°C 52% 3.3 mph NW5.3 kmh NW 16.0 mph25.7 kmh 30.33 in1027.1 mb 0.00 in0.0 mm 0.00 in0.0 mm 0.00 in0.0 mm
11:11 AM 39.8°F4.3°C 23.1°F-4.9°C 51% 2.6 mph NW4.2 kmh NW 16.0 mph25.7 kmh 30.33 in1027.1 mb 0.00 in0.0 mm 0.00 in0.0 mm 0.00 in0.0 mm
11:16 AM 40.1°F4.5°C 23.4°F-4.8°C 51% 2.5 mph NNW4.0 kmh NNW 16.0 mph25.7 kmh 30.33 in1027.1 mb 0.00 in0.0 mm 0.00 in0.0 mm 0.00 in0.0 mm
11:21 AM 40.3°F4.6°C 23.1°F-4.9°C 50% 5.1 mph NNW8.2 kmh NNW 13.0 mph20.9 kmh 30.33 in1027.1 mb 0.00 in0.0 mm 0.00 in0.0 mm 0.00 in0.0 mm
11:26 AM 40.5°F4.7°C 23.3°F-4.8°C 50% 5.3 mph NNW8.5 kmh NNW 13.0 mph20.9 kmh 30.33 in1027.1 mb 0.00 in0.0 mm 0.00 in0.0 mm 0.00 in0.0 mm
11:31 AM 40.8°F4.9°C 23.0°F-5.0°C 49% 6.3 mph NNW10.1 kmh NNW 13.0 mph20.9 kmh 30.33 in1027.1 mb 0.00 in0.0 mm 0.00 in0.0 mm 0.00 in0.0 mm
11:36 AM 41.2°F5.1°C 23.5°F-4.7°C 49% 4.4 mph NNW7.1 kmh NNW 13.0 mph20.9 kmh 30.33 in1027.1 mb 0.00 in0.0 mm 0.00 in0.0 mm 0.00 in0.0 mm
11:41 AM 41.5°F5.3°C 22.1°F-5.5°C 46% 3.0 mph NNW4.8 kmh NNW 12.0 mph19.3 kmh 30.33 in1027.1 mb 0.00 in0.0 mm 0.00 in0.0 mm 0.00 in0.0 mm
11:46 AM 42.0°F5.6°C 21.5°F-5.8°C 44% 3.4 mph N5.5 kmh N 12.0 mph19.3 kmh 30.33 in1027.1 mb 0.00 in0.0 mm 0.00 in0.0 mm 0.00 in0.0 mm
11:51 AM 42.4°F5.8°C 21.5°F-5.8°C 43% 3.3 mph N5.3 kmh N 12.0 mph19.3 kmh 30.33 in1027.1 mb 0.00 in0.0 mm 0.00 in0.0 mm 0.00 in0.0 mm
11:56 AM 42.9°F6.1°C 21.2°F-6.0°C 42% 2.9 mph N4.7 kmh N 12.0 mph19.3 kmh 30.33 in1027.1 mb 0.00 in0.0 mm 0.00 in0.0 mm 0.00 in0.0 mm
12:01 PM 43.1°F6.2°C 22.0°F-5.6°C 43% 1.3 mph NNW2.1 kmh NNW 12.0 mph19.3 kmh 30.33 in1027.1 mb 0.00 in0.0 mm 0.00 in0.0 mm 0.00 in0.0 mm
12:06 PM 43.4°F6.3°C 20.5°F-6.4°C 40% 5.3 mph NNW8.5 kmh NNW 13.0 mph20.9 kmh 30.33 in1027.1 mb 0.00 in0.0 mm 0.00 in0.0 mm 0.00 in0.0 mm
12:11 PM 43.9°F6.6°C 20.5°F-6.4°C 39% 3.3 mph NW5.3 kmh NW 13.0 mph20.9 kmh 30.33 in1027.1 mb 0.00 in0.0 mm 0.00 in0.0 mm 0.00 in0.0 mm
12:16 PM 44.0°F6.7°C 18.5°F-7.5°C 36% 4.4 mph NW7.1 kmh NW 13.0 mph20.9 kmh 30.34 in1027.4 mb 0.00 in0.0 mm 0.00 in0.0 mm 0.00 in0.0 mm
12:21 PM 44.4°F6.9°C 19.5°F-6.9°C 37% 2.0 mph NW3.2 kmh NW 13.0 mph20.9 kmh 30.34 in1027.4 mb 0.00 in0.0 mm 0.00 in0.0 mm 0.00 in0.0 mm
12:26 PM 44.5°F6.9°C 19.0°F-7.2°C 36% 5.5 mph NW8.9 kmh NW 13.0 mph20.9 kmh 30.34 in1027.4 mb 0.00 in0.0 mm 0.00 in0.0 mm 0.00 in0.0 mm
12:31 PM 44.7°F7.1°C 19.1°F-7.2°C 36% 3.9 mph NW6.3 kmh NW 13.0 mph20.9 kmh 30.34 in1027.4 mb 0.00 in0.0 mm 0.00 in0.0 mm 0.00 in0.0 mm
12:36 PM 44.9°F7.2°C 19.3°F-7.1°C 36% 3.6 mph NW5.8 kmh NW 13.0 mph20.9 kmh 30.34 in1027.4 mb 0.00 in0.0 mm 0.00 in0.0 mm 0.00 in0.0 mm
12:41 PM 45.1°F7.3°C 21.0°F-6.1°C 38% 2.3 mph N3.7 kmh N 10.0 mph16.1 kmh 30.33 in1027.1 mb 0.00 in0.0 mm 0.00 in0.0 mm 0.00 in0.0 mm
12:46 PM 45.5°F7.5°C 21.1°F-6.1°C 38% 1.7 mph NNW2.7 kmh NNW 10.0 mph16.1 kmh 30.33 in1027.1 mb 0.00 in0.0 mm 0.00 in0.0 mm 0.00 in0.0 mm
12:51 PM 45.3°F7.4°C 20.3°F-6.5°C 37% 1.5 mph NE2.4 kmh NE 10.0 mph16.1 kmh 30.33 in1027.1 mb 0.00 in0.0 mm 0.00 in0.0 mm 0.00 in0.0 mm
12:56 PM 45.6°F7.6°C 21.2°F-6.0°C 38% 1.3 mph N2.1 kmh N 6.0 mph9.7 kmh 30.33 in1027.1 mb 0.00 in0.0 mm 0.00 in0.0 mm 0.00 in0.0 mm
01:01 PM 46.0°F7.8°C 20.9°F-6.2°C 37% 1.9 mph WNW3.1 kmh WNW 6.0 mph9.7 kmh 30.32 in1026.8 mb 0.00 in0.0 mm 0.00 in0.0 mm 0.00 in0.0 mm
01:06 PM 46.4°F8.0°C 21.5°F-5.8°C 37% 1.6 mph N2.6 kmh N 6.0 mph9.7 kmh 30.32 in1026.8 mb 0.00 in0.0 mm 0.00 in0.0 mm 0.00 in0.0 mm
01:11 PM 46.9°F8.3°C 19.7°F-6.8°C 34% 4.0 mph N6.4 kmh N 8.0 mph12.9 kmh 30.32 in1026.8 mb 0.00 in0.0 mm 0.00 in0.0 mm 0.00 in0.0 mm
01:16 PM 46.7°F8.2°C 19.6°F-6.9°C 34% 3.8 mph N6.1 kmh N 9.0 mph14.5 kmh 30.32 in1026.8 mb 0.00 in0.0 mm 0.00 in0.0 mm 0.00 in0.0 mm
01:21 PM 46.7°F8.2°C 20.5°F-6.4°C 35% 4.2 mph NNW6.8 kmh NNW 12.0 mph19.3 kmh 30.32 in1026.8 mb 0.00 in0.0 mm 0.00 in0.0 mm 0.00 in0.0 mm
01:26 PM 47.1°F8.4°C 19.9°F-6.7°C 34% 5.1 mph N8.2 kmh N 12.0 mph19.3 kmh 30.31 in1026.4 mb 0.00 in0.0 mm 0.00 in0.0 mm 0.00 in0.0 mm
01:31 PM 47.2°F8.4°C 20.0°F-6.7°C 34% 3.3 mph NNW5.3 kmh NNW 12.0 mph19.3 kmh 30.31 in1026.4 mb 0.00 in0.0 mm 0.00 in0.0 mm 0.00 in0.0 mm
01:36 PM 47.7°F8.7°C 21.1°F-6.1°C 35% 3.0 mph NNW4.8 kmh NNW 12.0 mph19.3 kmh 30.31 in1026.4 mb 0.00 in0.0 mm 0.00 in0.0 mm 0.00 in0.0 mm
01:41 PM 47.8°F8.8°C 20.5°F-6.4°C 34% 4.0 mph WNW6.4 kmh WNW 11.0 mph17.7 kmh 30.30 in1026.1 mb 0.00 in0.0 mm 0.00 in0.0 mm 0.00 in0.0 mm
01:46 PM 48.4°F9.1°C 21.8°F-5.7°C 35% 2.0 mph NW3.2 kmh NW 10.0 mph16.1 kmh 30.31 in1026.4 mb 0.00 in0.0 mm 0.00 in0.0 mm 0.00 in0.0 mm
01:51 PM 48.1°F8.9°C 20.8°F-6.2°C 34% 3.9 mph NNW6.3 kmh NNW 8.0 mph12.9 kmh 30.30 in1026.1 mb 0.00 in0.0 mm 0.00 in0.0 mm 0.00 in0.0 mm
01:56 PM 48.3°F9.1°C 21.7°F-5.7°C 35% 2.1 mph N3.4 kmh N 8.0 mph12.9 kmh 30.29 in1025.7 mb 0.00 in0.0 mm 0.00 in0.0 mm 0.00 in0.0 mm
02:01 PM 48.7°F9.3°C 22.0°F-5.6°C 35% 1.7 mph WNW2.7 kmh WNW 8.0 mph12.9 kmh 30.29 in1025.7 mb 0.00 in0.0 mm 0.00 in0.0 mm 0.00 in0.0 mm
02:06 PM 48.8°F9.3°C 21.4°F-5.9°C 34% 4.0 mph NW6.4 kmh NW 8.0 mph12.9 kmh 30.29 in1025.7 mb 0.00 in0.0 mm 0.00 in0.0 mm 0.00 in0.0 mm
02:11 PM 48.9°F9.4°C 22.2°F-5.4°C 35% 1.9 mph NW3.1 kmh NW 7.0 mph11.3 kmh 30.29 in1025.7 mb 0.00 in0.0 mm 0.00 in0.0 mm 0.00 in0.0 mm
02:16 PM 49.2°F9.6°C 22.5°F-5.3°C 35% 6.1 mph WNW9.8 kmh WNW 12.0 mph19.3 kmh 30.28 in1025.4 mb 0.00 in0.0 mm 0.00 in0.0 mm 0.00 in0.0 mm
02:21 PM 49.3°F9.6°C 22.6°F-5.2°C 35% 3.2 mph NW5.1 kmh NW 12.0 mph19.3 kmh 30.28 in1025.4 mb 0.00 in0.0 mm 0.00 in0.0 mm 0.00 in0.0 mm
02:26 PM 49.3°F9.6°C 22.6°F-5.2°C 35% 6.9 mph NW11.1 kmh NW 12.0 mph19.3 kmh 30.28 in1025.4 mb 0.00 in0.0 mm 0.00 in0.0 mm 0.00 in0.0 mm
02:31 PM 49.0°F9.4°C 22.3°F-5.4°C 35% 6.4 mph NW10.3 kmh NW 14.0 mph22.5 kmh 30.28 in1025.4 mb 0.00 in0.0 mm 0.00 in0.0 mm 0.00 in0.0 mm
02:36 PM 49.1°F9.5°C 22.4°F-5.3°C 35% 4.0 mph W6.4 kmh W 14.0 mph22.5 kmh 30.27 in1025.1 mb 0.00 in0.0 mm 0.00 in0.0 mm 0.00 in0.0 mm
02:41 PM 49.4°F9.7°C 22.6°F-5.2°C 35% 4.0 mph NW6.4 kmh NW 14.0 mph22.5 kmh 30.27 in1025.1 mb 0.00 in0.0 mm 0.00 in0.0 mm 0.00 in0.0 mm
02:46 PM 49.4°F9.7°C 22.0°F-5.6°C 34% 4.0 mph NW6.4 kmh NW 14.0 mph22.5 kmh 30.27 in1025.1 mb 0.00 in0.0 mm 0.00 in0.0 mm 0.00 in0.0 mm
02:51 PM 49.6°F9.8°C 22.8°F-5.1°C 35% 1.3 mph N2.1 kmh N 8.0 mph12.9 kmh 30.27 in1025.1 mb 0.00 in0.0 mm 0.00 in0.0 mm 0.00 in0.0 mm
02:55 PM 49.6°F9.8°C 22.1°F-5.5°C 34% 2.2 mph NNW3.5 kmh NNW 8.0 mph12.9 kmh 30.26 in1024.7 mb 0.00 in0.0 mm 0.00 in0.0 mm 0.00 in0.0 mm
03:00 PM 49.9°F9.9°C 23.3°F-4.8°C 35% 2.7 mph NNW4.3 kmh NNW 8.0 mph12.9 kmh 30.26 in1024.7 mb 0.00 in0.0 mm 0.00 in0.0 mm 0.00 in0.0 mm
03:05 PM 50.1°F10.1°C 23.5°F-4.7°C 35% 1.9 mph NW3.1 kmh NW 7.0 mph11.3 kmh 30.26 in1024.7 mb 0.00 in0.0 mm 0.00 in0.0 mm 0.00 in0.0 mm
03:10 PM 50.6°F10.3°C 23.7°F-4.6°C 35% 3.1 mph NW5.0 kmh NW 7.0 mph11.3 kmh 30.26 in1024.7 mb 0.00 in0.0 mm 0.00 in0.0 mm 0.00 in0.0 mm
03:15 PM 50.7°F10.4°C 23.1°F-4.9°C 34% 4.2 mph NNW6.8 kmh NNW 8.0 mph12.9 kmh 30.26 in1024.7 mb 0.00 in0.0 mm 0.00 in0.0 mm 0.00 in0.0 mm
03:20 PM 50.6°F10.3°C 23.7°F-4.6°C 35% 1.4 mph NNW2.3 kmh NNW 8.0 mph12.9 kmh 30.25 in1024.4 mb 0.00 in0.0 mm 0.00 in0.0 mm 0.00 in0.0 mm
03:25 PM 50.8°F10.4°C 23.2°F-4.9°C 34% 3.8 mph NW6.1 kmh NW 8.0 mph12.9 kmh 30.25 in1024.4 mb 0.00 in0.0 mm 0.00 in0.0 mm 0.00 in0.0 mm
03:30 PM 50.7°F10.4°C 23.8°F-4.6°C 35% 3.0 mph WNW4.8 kmh WNW 8.0 mph12.9 kmh 30.25 in1024.4 mb 0.00 in0.0 mm 0.00 in0.0 mm 0.00 in0.0 mm
03:35 PM 50.9°F10.5°C 24.0°F-4.4°C 35% 3.2 mph WSW5.1 kmh WSW 8.0 mph12.9 kmh 30.24 in1024.0 mb 0.00 in0.0 mm 0.00 in0.0 mm 0.00 in0.0 mm
03:40 PM 51.3°F10.7°C 22.9°F-5.1°C 33% 4.5 mph W7.2 kmh W 12.0 mph19.3 kmh 30.24 in1024.0 mb 0.00 in0.0 mm 0.00 in0.0 mm 0.00 in0.0 mm
03:45 PM 51.2°F10.7°C 22.1°F-5.5°C 32% 5.3 mph W8.5 kmh W 13.0 mph20.9 kmh 30.24 in1024.0 mb 0.00 in0.0 mm 0.00 in0.0 mm 0.00 in0.0 mm
03:50 PM 51.1°F10.6°C 22.7°F-5.2°C 33% 3.9 mph W6.3 kmh W 13.0 mph20.9 kmh 30.24 in1024.0 mb 0.00 in0.0 mm 0.00 in0.0 mm 0.00 in0.0 mm
03:55 PM 51.4°F10.8°C 23.0°F-5.0°C 33% 2.7 mph W4.3 kmh W 13.0 mph20.9 kmh 30.24 in1024.0 mb 0.00 in0.0 mm 0.00 in0.0 mm 0.00 in0.0 mm
04:00 PM 51.3°F10.7°C 22.9°F-5.1°C 33% 3.4 mph W5.5 kmh W 13.0 mph20.9 kmh 30.24 in1024.0 mb 0.00 in0.0 mm 0.00 in0.0 mm 0.00 in0.0 mm
04:05 PM 51.4°F10.8°C 23.0°F-5.0°C 33% 5.9 mph WNW9.5 kmh WNW 10.0 mph16.1 kmh 30.24 in1024.0 mb 0.00 in0.0 mm 0.00 in0.0 mm 0.00 in0.0 mm
04:10 PM 51.3°F10.7°C 23.1°F-4.9°C 33% 8.8 mph WNW14.2 kmh WNW 12.0 mph19.3 kmh 30.24 in1024.0 mb 0.00 in0.0 mm 0.00 in0.0 mm 0.00 in0.0 mm
04:15 PM 51.5°F10.8°C 23.8°F-4.6°C 34% 3.3 mph NW5.3 kmh NW 12.0 mph19.3 kmh 30.23 in1023.7 mb 0.00 in0.0 mm 0.00 in0.0 mm 0.00 in0.0 mm
04:20 PM 51.6°F10.9°C 23.9°F-4.5°C 34% 3.9 mph NW6.3 kmh NW 12.0 mph19.3 kmh 30.23 in1023.7 mb 0.00 in0.0 mm 0.00 in0.0 mm 0.00 in0.0 mm
04:25 PM 51.6°F10.9°C 23.9°F-4.5°C 34% 2.5 mph NW4.0 kmh NW 12.0 mph19.3 kmh 30.23 in1023.7 mb 0.00 in0.0 mm 0.00 in0.0 mm 0.00 in0.0 mm
04:30 PM 51.7°F10.9°C 24.9°F-3.9°C 35% 1.5 mph NW2.4 kmh NW 8.0 mph12.9 kmh 30.23 in1023.7 mb 0.00 in0.0 mm 0.00 in0.0 mm 0.00 in0.0 mm
04:35 PM 52.3°F11.3°C 25.2°F-3.8°C 35% 3.4 mph W5.5 kmh W 8.0 mph12.9 kmh 30.23 in1023.7 mb 0.00 in0.0 mm 0.00 in0.0 mm 0.00 in0.0 mm
04:40 PM 52.4°F11.3°C 26.0°F-3.3°C 36% 3.6 mph WNW5.8 kmh WNW 9.0 mph14.5 kmh 30.23 in1023.7 mb 0.00 in0.0 mm 0.00 in0.0 mm 0.00 in0.0 mm
04:45 PM 52.4°F11.3°C 24.6°F-4.1°C 34% 4.1 mph NW6.6 kmh NW 9.0 mph14.5 kmh 30.22 in1023.4 mb 0.00 in0.0 mm 0.00 in0.0 mm 0.00 in0.0 mm
04:50 PM 52.1°F11.2°C 25.0°F-3.9°C 35% 2.7 mph NNW4.3 kmh NNW 9.0 mph14.5 kmh 30.22 in1023.4 mb 0.00 in0.0 mm 0.00 in0.0 mm 0.00 in0.0 mm
04:55 PM 52.5°F11.4°C 25.4°F-3.7°C 35% 3.3 mph WNW5.3 kmh WNW 9.0 mph14.5 kmh 30.22 in1023.4 mb 0.00 in0.0 mm 0.00 in0.0 mm 0.00 in0.0 mm
05:00 PM 52.5°F11.4°C 25.4°F-3.7°C 35% 2.4 mph NW3.9 kmh NW 10.0 mph16.1 kmh 30.22 in1023.4 mb 0.00 in0.0 mm 0.00 in0.0 mm 0.00 in0.0 mm
05:05 PM 52.4°F11.3°C 25.5°F-3.6°C 35% 3.5 mph W5.6 kmh W 10.0 mph16.1 kmh 30.22 in1023.4 mb 0.00 in0.0 mm 0.00 in0.0 mm 0.00 in0.0 mm
05:10 PM 52.7°F11.5°C 26.5°F-3.1°C 36% 2.9 mph W4.7 kmh W 10.0 mph16.1 kmh 30.22 in1023.4 mb 0.00 in0.0 mm 0.00 in0.0 mm 0.00 in0.0 mm
05:15 PM 53.0°F11.7°C 24.4°F-4.2°C 33% 4.0 mph WSW6.4 kmh WSW 10.0 mph16.1 kmh 30.22 in1023.4 mb 0.00 in0.0 mm 0.00 in0.0 mm 0.00 in0.0 mm
05:20 PM 52.6°F11.4°C 24.8°F-4.0°C 34% 3.9 mph W6.3 kmh W 9.0 mph14.5 kmh 30.22 in1023.4 mb 0.00 in0.0 mm 0.00 in0.0 mm 0.00 in0.0 mm
05:25 PM 52.5°F11.4°C 25.4°F-3.7°C 35% 3.3 mph NW5.3 kmh NW 9.0 mph14.5 kmh 30.22 in1023.4 mb 0.00 in0.0 mm 0.00 in0.0 mm 0.00 in0.0 mm
05:30 PM 52.4°F11.3°C 25.3°F-3.7°C 35% 2.6 mph NW4.2 kmh NW 9.0 mph14.5 kmh 30.22 in1023.4 mb 0.00 in0.0 mm 0.00 in0.0 mm 0.00 in0.0 mm
05:35 PM 52.5°F11.4°C 24.0°F-4.4°C 33% 5.2 mph W8.4 kmh W 9.0 mph14.5 kmh 30.22 in1023.4 mb 0.00 in0.0 mm 0.00 in0.0 mm 0.00 in0.0 mm
05:40 PM 52.6°F11.4°C 24.8°F-4.0°C 34% 3.6 mph WSW5.8 kmh WSW 9.0 mph14.5 kmh 30.22 in1023.4 mb 0.00 in0.0 mm 0.00 in0.0 mm 0.00 in0.0 mm
05:45 PM 52.6°F11.4°C 24.8°F-4.0°C 34% 3.7 mph W6.0 kmh W 9.0 mph14.5 kmh 30.22 in1023.4 mb 0.00 in0.0 mm 0.00 in0.0 mm 0.00 in0.0 mm
05:50 PM 52.4°F11.3°C 24.6°F-4.1°C 34% 3.5 mph W5.6 kmh W 10.0 mph16.1 kmh 30.22 in1023.4 mb 0.00 in0.0 mm 0.00 in0.0 mm 0.00 in0.0 mm
05:55 PM 52.4°F11.3°C 24.6°F-4.1°C 34% 3.5 mph W5.6 kmh W 10.0 mph16.1 kmh 30.22 in1023.4 mb 0.00 in0.0 mm 0.00 in0.0 mm 0.00 in0.0 mm
06:00 PM 52.3°F11.3°C 24.5°F-4.2°C 34% 4.4 mph W7.1 kmh W 10.0 mph16.1 kmh 30.22 in1023.4 mb 0.00 in0.0 mm 0.00 in0.0 mm 0.00 in0.0 mm
06:05 PM 52.2°F11.2°C 24.4°F-4.2°C 34% 4.1 mph WSW6.6 kmh WSW 10.0 mph16.1 kmh 30.22 in1023.4 mb 0.00 in0.0 mm 0.00 in0.0 mm 0.00 in0.0 mm
06:10 PM 52.3°F11.3°C 24.5°F-4.2°C 34% 2.2 mph W3.5 kmh W 10.0 mph16.1 kmh 30.22 in1023.4 mb 0.00 in0.0 mm 0.00 in0.0 mm 0.00 in0.0 mm
06:15 PM 52.2°F11.2°C 24.4°F-4.2°C 34% 3.7 mph W6.0 kmh W 10.0 mph16.1 kmh 30.22 in1023.4 mb 0.00 in0.0 mm 0.00 in0.0 mm 0.00 in0.0 mm
06:20 PM 52.1°F11.2°C 25.0°F-3.9°C 35% 4.0 mph W6.4 kmh W 10.0 mph16.1 kmh 30.22 in1023.4 mb 0.00 in0.0 mm 0.00 in0.0 mm 0.00 in0.0 mm
06:25 PM 52.0°F11.1°C 25.0°F-3.9°C 35% 2.0 mph W3.2 kmh W 8.0 mph12.9 kmh 30.22 in1023.4 mb 0.00 in0.0 mm 0.00 in0.0 mm 0.00 in0.0 mm
06:30 PM 51.9°F11.1°C 24.9°F-3.9°C 35% 1.0 mph W1.6 kmh W 8.0 mph12.9 kmh 30.22 in1023.4 mb 0.00 in0.0 mm 0.00 in0.0 mm 0.00 in0.0 mm
06:35 PM 51.7°F10.9°C 24.7°F-4.1°C 35% 2.6 mph W4.2 kmh W 8.0 mph12.9 kmh 30.22 in1023.4 mb 0.00 in0.0 mm 0.00 in0.0 mm 0.00 in0.0 mm
06:40 PM 51.4°F10.8°C 24.4°F-4.2°C 35% 1.9 mph WSW3.1 kmh WSW 6.0 mph9.7 kmh 30.22 in1023.4 mb 0.00 in0.0 mm 0.00 in0.0 mm 0.00 in0.0 mm
06:45 PM 51.3°F10.7°C 24.3°F-4.3°C 35% 2.8 mph WSW4.5 kmh WSW 6.0 mph9.7 kmh 30.22 in1023.4 mb 0.00 in0.0 mm 0.00 in0.0 mm 0.00 in0.0 mm
06:50 PM 51.1°F10.6°C 24.8°F-4.0°C 36% 1.4 mph WSW2.3 kmh WSW 5.0 mph8.0 kmh 30.22 in1023.4 mb 0.00 in0.0 mm 0.00 in0.0 mm 0.00 in0.0 mm
06:55 PM 50.9°F10.5°C 24.9°F-3.9°C 36% Calm Calm 5.0 mph8.0 kmh 30.22 in1023.4 mb 0.00 in0.0 mm 0.00 in0.0 mm 0.00 in0.0 mm
07:00 PM 50.5°F10.3°C 25.0°F-3.9°C 37% 1.5 mph W2.4 kmh W 4.0 mph6.4 kmh 30.22 in1023.4 mb 0.00 in0.0 mm 0.00 in0.0 mm 0.00 in0.0 mm
07:05 PM 50.3°F10.2°C 24.8°F-4.0°C 37% Calm Calm 3.0 mph4.8 kmh 30.22 in1023.4 mb 0.00 in0.0 mm 0.00 in0.0 mm 0.00 in0.0 mm
07:10 PM 50.0°F10.0°C 25.2°F-3.8°C 38% Calm Calm 2.0 mph3.2 kmh 30.22 in1023.4 mb 0.00 in0.0 mm 0.00 in0.0 mm 0.00 in0.0 mm
07:15 PM 49.8°F9.9°C 25.0°F-3.9°C 38% Calm Calm 2.0 mph3.2 kmh 30.22 in1023.4 mb 0.00 in0.0 mm 0.00 in0.0 mm 0.00 in0.0 mm
07:20 PM 49.5°F9.7°C 25.5°F-3.6°C 39% Calm Calm 2.0 mph3.2 kmh 30.22 in1023.4 mb 0.00 in0.0 mm 0.00 in0.0 mm 0.00 in0.0 mm
07:25 PM 49.3°F9.6°C 25.2°F-3.8°C 39% Calm Calm -- 30.23 in1023.7 mb 0.00 in0.0 mm 0.00 in0.0 mm 0.00 in0.0 mm
07:30 PM 49.1°F9.5°C 25.2°F-3.8°C 39% Calm Calm 1.0 mph1.6 kmh 30.22 in1023.4 mb 0.00 in0.0 mm 0.00 in0.0 mm 0.00 in0.0 mm
07:35 PM 48.9°F9.4°C 25.4°F-3.7°C 40% Calm Calm 1.0 mph1.6 kmh 30.23 in1023.7 mb 0.00 in0.0 mm 0.00 in0.0 mm 0.00 in0.0 mm
07:40 PM 48.6°F9.2°C 25.8°F-3.4°C 41% Calm Calm 1.0 mph1.6 kmh 30.23 in1023.7 mb 0.00 in0.0 mm 0.00 in0.0 mm 0.00 in0.0 mm
07:45 PM 48.5°F9.2°C 25.7°F-3.5°C 41% Calm Calm 1.0 mph1.6 kmh 30.23 in1023.7 mb 0.00 in0.0 mm 0.00 in0.0 mm 0.00 in0.0 mm
07:50 PM 48.3°F9.1°C 25.5°F-3.6°C 41% Calm Calm 1.0 mph1.6 kmh 30.23 in1023.7 mb 0.00 in0.0 mm 0.00 in0.0 mm 0.00 in0.0 mm
07:54 PM 48.2°F9.0°C 26.0°F-3.3°C 42% 1.0 mph W1.6 kmh W 1.0 mph1.6 kmh 30.23 in1023.7 mb 0.00 in0.0 mm 0.00 in0.0 mm 0.00 in0.0 mm
07:59 PM 48.1°F8.9°C 25.9°F-3.4°C 42% Calm Calm 1.0 mph1.6 kmh 30.22 in1023.4 mb 0.00 in0.0 mm 0.00 in0.0 mm 0.00 in0.0 mm
08:04 PM 47.9°F8.8°C 25.9°F-3.4°C 42% Calm Calm 1.0 mph1.6 kmh 30.22 in1023.4 mb 0.00 in0.0 mm 0.00 in0.0 mm 0.00 in0.0 mm
08:09 PM 47.7°F8.7°C 25.7°F-3.5°C 42% Calm Calm 1.0 mph1.6 kmh 30.22 in1023.4 mb 0.00 in0.0 mm 0.00 in0.0 mm 0.00 in0.0 mm
08:14 PM 47.8°F8.8°C 25.8°F-3.4°C 42% Calm Calm 1.0 mph1.6 kmh 30.22 in1023.4 mb 0.00 in0.0 mm 0.00 in0.0 mm 0.00 in0.0 mm
08:19 PM 47.8°F8.8°C 25.8°F-3.4°C 42% Calm Calm -- 30.22 in1023.4 mb 0.00 in0.0 mm 0.00 in0.0 mm 0.00 in0.0 mm
08:24 PM 47.8°F8.8°C 25.6°F-3.6°C 42% Calm Calm -- 30.22 in1023.4 mb 0.00 in0.0 mm 0.00 in0.0 mm 0.00 in0.0 mm
08:29 PM 47.6°F8.7°C 25.5°F-3.6°C 42% Calm Calm -- 30.22 in1023.4 mb 0.00 in0.0 mm 0.00 in0.0 mm 0.00 in0.0 mm
08:34 PM 47.8°F8.8°C 25.6°F-3.6°C 42% Calm Calm -- 30.23 in1023.7 mb 0.00 in0.0 mm 0.00 in0.0 mm 0.00 in0.0 mm
08:39 PM 48.0°F8.9°C 25.2°F-3.8°C 41% Calm Calm -- 30.23 in1023.7 mb 0.00 in0.0 mm 0.00 in0.0 mm 0.00 in0.0 mm
08:44 PM 47.8°F8.8°C 25.6°F-3.6°C 42% Calm Calm -- 30.23 in1023.7 mb 0.00 in0.0 mm 0.00 in0.0 mm 0.00 in0.0 mm
08:49 PM 47.7°F8.7°C 25.6°F-3.6°C 42% Calm Calm -- 30.23 in1023.7 mb 0.00 in0.0 mm 0.00 in0.0 mm 0.00 in0.0 mm
08:54 PM 47.6°F8.7°C 25.5°F-3.6°C 42% Calm Calm -- 30.23 in1023.7 mb 0.00 in0.0 mm 0.00 in0.0 mm 0.00 in0.0 mm
08:59 PM 47.6°F8.7°C 25.5°F-3.6°C 42% Calm Calm -- 30.24 in1024.0 mb 0.00 in0.0 mm 0.00 in0.0 mm 0.00 in0.0 mm
09:04 PM 47.4°F8.6°C 25.3°F-3.7°C 42% Calm Calm -- 30.24 in1024.0 mb 0.00 in0.0 mm 0.00 in0.0 mm 0.00 in0.0 mm
09:09 PM 47.4°F8.6°C 25.3°F-3.7°C 42% Calm Calm -- 30.24 in1024.0 mb 0.00 in0.0 mm 0.00 in0.0 mm 0.00 in0.0 mm
09:14 PM 47.4°F8.6°C 25.4°F-3.7°C 42% Calm Calm -- 30.24 in1024.0 mb 0.00 in0.0 mm 0.00 in0.0 mm 0.00 in0.0 mm
09:19 PM 47.3°F8.5°C 25.2°F-3.8°C 42% Calm Calm -- 30.24 in1024.0 mb 0.00 in0.0 mm 0.00 in0.0 mm 0.00 in0.0 mm
09:24 PM 47.3°F8.5°C 25.2°F-3.8°C 42% Calm Calm -- 30.24 in1024.0 mb 0.00 in0.0 mm 0.00 in0.0 mm 0.00 in0.0 mm
09:29 PM 47.3°F8.5°C 25.2°F-3.8°C 42% Calm Calm -- 30.24 in1024.0 mb 0.00 in0.0 mm 0.00 in0.0 mm 0.00 in0.0 mm
09:34 PM 47.3°F8.5°C 25.2°F-3.8°C 42% Calm Calm -- 30.24 in1024.0 mb 0.00 in0.0 mm 0.00 in0.0 mm 0.00 in0.0 mm
09:39 PM 47.1°F8.4°C 25.0°F-3.9°C 42% Calm Calm -- 30.24 in1024.0 mb 0.00 in0.0 mm 0.00 in0.0 mm 0.00 in0.0 mm
09:44 PM 46.9°F8.3°C 25.4°F-3.7°C 43% Calm Calm -- 30.24 in1024.0 mb 0.00 in0.0 mm 0.00 in0.0 mm 0.00 in0.0 mm
09:49 PM 46.9°F8.3°C 25.4°F-3.7°C 43% Calm Calm -- 30.23 in1023.7 mb 0.00 in0.0 mm 0.00 in0.0 mm 0.00 in0.0 mm
09:54 PM 46.7°F8.2°C 25.2°F-3.8°C 43% Calm Calm -- 30.24 in1024.0 mb 0.00 in0.0 mm 0.00 in0.0 mm 0.00 in0.0 mm
09:59 PM 46.5°F8.1°C 25.6°F-3.6°C 44% Calm Calm -- 30.24 in1024.0 mb 0.00 in0.0 mm 0.00 in0.0 mm 0.00 in0.0 mm
10:04 PM 46.4°F8.0°C 25.5°F-3.6°C 44% Calm Calm -- 30.24 in1024.0 mb 0.00 in0.0 mm 0.00 in0.0 mm 0.00 in0.0 mm
10:09 PM 46.2°F7.9°C 25.3°F-3.7°C 44% 1.0 mph SW1.6 kmh SW 1.0 mph1.6 kmh 30.24 in1024.0 mb 0.00 in0.0 mm 0.00 in0.0 mm 0.00 in0.0 mm
10:14 PM 46.0°F7.8°C 25.2°F-3.8°C 44% Calm Calm 1.0 mph1.6 kmh 30.23 in1023.7 mb 0.00 in0.0 mm 0.00 in0.0 mm 0.00 in0.0 mm
10:19 PM 45.8°F7.7°C 25.0°F-3.9°C 44% 1.0 mph SW1.6 kmh SW 1.0 mph1.6 kmh 30.23 in1023.7 mb 0.00 in0.0 mm 0.00 in0.0 mm 0.00 in0.0 mm
10:24 PM 45.5°F7.5°C 25.3°F-3.7°C 45% Calm Calm 1.0 mph1.6 kmh 30.23 in1023.7 mb 0.00 in0.0 mm 0.00 in0.0 mm 0.00 in0.0 mm
10:29 PM 45.1°F7.3°C 25.4°F-3.7°C 46% Calm Calm 1.0 mph1.6 kmh 30.23 in1023.7 mb 0.00 in0.0 mm 0.00 in0.0 mm 0.00 in0.0 mm
10:34 PM 44.9°F7.2°C 25.3°F-3.7°C 46% 1.0 mph SW1.6 kmh SW 1.0 mph1.6 kmh 30.23 in1023.7 mb 0.00 in0.0 mm 0.00 in0.0 mm 0.00 in0.0 mm
10:39 PM 45.2°F7.3°C 25.0°F-3.9°C 45% 1.0 mph SW1.6 kmh SW 1.0 mph1.6 kmh 30.23 in1023.7 mb 0.00 in0.0 mm 0.00 in0.0 mm 0.00 in0.0 mm
10:44 PM 45.2°F7.3°C 25.0°F-3.9°C 45% Calm Calm 1.0 mph1.6 kmh 30.23 in1023.7 mb 0.00 in0.0 mm 0.00 in0.0 mm 0.00 in0.0 mm
10:49 PM 44.9°F7.2°C 25.3°F-3.7°C 46% Calm Calm 1.0 mph1.6 kmh 30.23 in1023.7 mb 0.00 in0.0 mm 0.00 in0.0 mm 0.00 in0.0 mm
10:54 PM 44.9°F7.2°C 24.7°F-4.1°C 45% Calm Calm 1.0 mph1.6 kmh 30.23 in1023.7 mb 0.00 in0.0 mm 0.00 in0.0 mm 0.00 in0.0 mm
10:59 PM 44.9°F7.2°C 24.7°F-4.1°C 45% Calm Calm -- 30.23 in1023.7 mb 0.00 in0.0 mm 0.00 in0.0 mm 0.00 in0.0 mm
11:04 PM 44.9°F7.2°C 24.8°F-4.0°C 45% Calm Calm -- 30.23 in1023.7 mb 0.00 in0.0 mm 0.00 in0.0 mm 0.00 in0.0 mm
11:09 PM 45.1°F7.3°C 24.9°F-3.9°C 45% Calm Calm -- 30.23 in1023.7 mb 0.00 in0.0 mm 0.00 in0.0 mm 0.00 in0.0 mm
11:14 PM 45.2°F7.3°C 24.4°F-4.2°C 44% Calm Calm -- 30.23 in1023.7 mb 0.00 in0.0 mm 0.00 in0.0 mm 0.00 in0.0 mm
11:19 PM 45.5°F7.5°C 24.7°F-4.1°C 44% Calm Calm -- 30.23 in1023.7 mb 0.00 in0.0 mm 0.00 in0.0 mm 0.00 in0.0 mm
11:24 PM 45.7°F7.6°C 24.9°F-3.9°C 44% Calm Calm -- 30.23 in1023.7 mb 0.00 in0.0 mm 0.00 in0.0 mm 0.00 in0.0 mm
11:29 PM 45.9°F7.7°C 24.6°F-4.1°C 43% Calm Calm -- 30.23 in1023.7 mb 0.00 in0.0 mm 0.00 in0.0 mm 0.00 in0.0 mm
11:34 PM 46.0°F7.8°C 24.6°F-4.1°C 43% Calm Calm -- 30.22 in1023.4 mb 0.00 in0.0 mm 0.00 in0.0 mm 0.00 in0.0 mm
11:39 PM 45.9°F7.7°C 24.5°F-4.2°C 43% Calm Calm -- 30.22 in1023.4 mb 0.00 in0.0 mm 0.00 in0.0 mm 0.00 in0.0 mm
11:44 PM 45.8°F7.7°C 24.4°F-4.2°C 43% Calm Calm -- 30.23 in1023.7 mb 0.00 in0.0 mm 0.00 in0.0 mm 0.00 in0.0 mm
11:49 PM 45.7°F7.6°C 24.5°F-4.2°C 43% Calm Calm -- 30.23 in1023.7 mb 0.00 in0.0 mm 0.00 in0.0 mm 0.00 in0.0 mm
11:54 PM 45.6°F7.6°C 24.2°F-4.3°C 43% 1.0 mph SW1.6 kmh SW 1.0 mph1.6 kmh 30.23 in1023.7 mb 0.00 in0.0 mm 0.00 in0.0 mm 0.00 in0.0 mm
11:59 PM 45.7°F7.6°C 24.5°F-4.2°C 43% 1.0 mph SW1.6 kmh SW 1.0 mph1.6 kmh 30.23 in1023.7 mb 0.00 in0.0 mm 0.00 in0.0 mm 0.00 in0.0 mm